Airfield :
LOGIN :

Register | Disclaimer

   EN    FR    IT 

 










Legend :    VFR   Marginal VFR   IFR   Intensive IFR   Very Intensive IFR
Visi :
Ceiling :
>= 8 km
>= 3000ft
5 to 8 km
1000 to 3000 ft
1500m to 5 km
500 to 1000 ft
800 to 1500m
200 to 500 ft
< 800m
< 200 ft
Symbols :   Thunderstorms  Fog  Heavy snow  Heavy precipitations  Wind > 20 kt
SIGMETs :     Misc.  Thunderstorms  Icing  Turbulence  Mountain Waves  Volcanic Ashes






- Airport Elevation : 162 ft
- IATA code : BOD


LFBD - Bordeaux / Merignac

CURRENT METAR :
  • 190500Z AUTO 27004KT CAVOK 19/14 Q1018 TEMPO 4500 -SHRA FEW050CB BKN060TCU

EXPIRED METARs :
  • 190430Z AUTO 26004KT CAVOK 19/14 Q1018 TEMPO 4500 -SHRA FEW050CB BKN060TCU
  • 190400Z AUTO VRB03KT CAVOK 19/14 Q1018 TEMPO 4500 -SHRA FEW050CB BKN060TCU
  • 190330Z AUTO 29004KT CAVOK 19/15 Q1018 TEMPO 4500 -SHRA FEW050CB BKN060TCU
  • 190300Z AUTO 28005KT CAVOK 20/15 Q1018 TEMPO 4500 -SHRA FEW050CB BKN060TCU
  • 190230Z AUTO 23005KT CAVOK 20/15 Q1018 TEMPO 4500 -SHRA FEW050CB BKN060TCU
  • 190200Z AUTO 29003KT CAVOK 21/15 Q1018 TEMPO 4500 -SHRA FEW050CB BKN060TCU
  • 190130Z AUTO 25004KT CAVOK 21/15 Q1018 TEMPO 4500 -SHRA FEW050CB BKN060TCU
  • 190100Z AUTO VRB03KT CAVOK 21/14 Q1018 TEMPO 4500 -SHRA FEW050CB BKN060TCU
  • 190030Z AUTO 29004KT CAVOK 22/15 Q1018 TEMPO 4500 -SHRA FEW050CB BKN060TCU

TAF TAF LFBD
Valid from the 19 at 00:00 until the 20 at 06:00 UTC


182300Z 1900/2006 35005KT CAVOK TX33/1913Z TN18/2005Z
PROB30
TEMPO 1902/1906 4500 -SHRA FEW050CB BKN060TCU
BECMG 1912/1915 29010KT
ATIS : +33 5 57 92 81 04



MET'MAP, your aeronautical weather chart ! - Copyright ORBIFLY December 2007 - Disclaimer

ORBIFLY MET'MAP TEAM :

Programming & Development : Alexandra Zaïnal
Original concept : Baudouin d'Aumeries
Technical & hardware support : Manuel Goepfert
Assistance : Marc-Olivier Méhu




SOURCES & CREDITS :

   NOAA